Terminal Aerodrome Forecast
Issued by NWS Springfield, MO

Home | Current Version | Previous Version | Text Only | Print | Product List | Glossary On
Versions: 1 2 3 4 5 6 7 8 9 10 11 12
379
FTUS43 KSGF 201120
TAFSGF
TAF
KSGF 201120Z 2012/2112 16012KT P6SM FEW250
     FM201500 19015G22KT P6SM FEW250
     FM210000 17010KT P6SM SKC=

USA.gov is the U.S. government's official web portal to all federal, state and local government web resources and services.